Time;durP1;ratioP1;P1;durP2;ratioP2;P2;SDS_P1;SDS_P2;PMS_P1;PMS_P2;Temp;Humidity;BMP_temperature;BMP_pressure;BME280_temperature;BME280_humidity;BME280_pressure;Samples;Min_cycle;Max_cycle;Signal;HPM_P1;HPM_P2
2022/09/05 00:02:01;;;;;;;4.53;3.10;;;;;;;19.98;74.28;101969.97;5043761;28;20649;-68
2022/09/05 00:04:36;;;;;;;5.32;3.10;;;;;;;19.97;73.80;101968.22;5043249;28;20287;-68
2022/09/05 00:07:06;;;;;;;7.78;3.45;;;;;;;19.98;73.95;101967.28;5046402;28;20479;-68
2022/09/05 00:09:58;;;;;;;4.00;3.60;;;;;;;19.94;73.92;101967.47;5042512;28;20124;-68
2022/09/05 00:12:24;;;;;;;5.43;3.60;;;;;;;19.90;73.78;101968.56;5046255;28;20044;-69
2022/09/05 00:14:54;;;;;;;4.45;3.63;;;;;;;19.88;73.75;101964.25;5028559;28;20036;-69
2022/09/05 00:17:35;;;;;;;4.60;3.25;;;;;;;19.84;74.35;101968.94;5029558;28;20111;-67
2022/09/05 00:20:07;;;;;;;8.73;3.45;;;;;;;19.83;73.94;101967.19;5046615;28;20107;-69
2022/09/05 00:22:42;;;;;;;6.68;3.58;;;;;;;19.84;74.27;101966.25;5047132;28;20025;-68
2022/09/05 00:25:13;;;;;;;6.75;3.47;;;;;;;19.82;74.37;101962.78;5027894;28;20124;-69
2022/09/05 00:28:00;;;;;;;3.85;3.40;;;;;;;19.77;74.52;101962.16;5026291;28;20033;-68
2022/09/05 00:30:30;;;;;;;4.13;3.38;;;;;;;19.76;74.58;101965.81;5008847;28;20113;-67
2022/09/05 00:33:12;;;;;;;9.10;3.75;;;;;;;19.74;74.50;101959.69;4993036;28;20025;-67
2022/09/05 00:35:40;;;;;;;4.50;3.58;;;;;;;19.76;74.60;101961.31;5026202;28;20415;-67
2022/09/05 00:38:12;;;;;;;5.37;3.70;;;;;;;19.80;74.55;101959.31;5035281;28;20028;-68
2022/09/05 00:40:48;;;;;;;7.25;3.33;;;;;;;19.78;74.70;101958.56;5046515;28;20329;-68
2022/09/05 00:43:23;;;;;;;7.85;3.90;;;;;;;19.74;74.53;101952.50;5028054;28;20094;-68
2022/09/05 00:45:53;;;;;;;5.07;3.65;;;;;;;19.69;74.73;101951.94;5029110;28;20675;-68
2022/09/05 00:48:33;;;;;;;6.45;3.72;;;;;;;19.66;75.26;101950.25;5028937;28;20029;-69
2022/09/05 00:51:08;;;;;;;5.57;4.03;;;;;;;19.64;75.54;101952.16;5028252;28;20025;-69
2022/09/05 00:53:52;;;;;;;4.68;3.30;;;;;;;19.66;75.22;101947.59;5045689;28;20846;-69
2022/09/05 00:56:32;;;;;;;6.18;3.58;;;;;;;19.67;75.11;101951.13;5028349;28;20052;-69
2022/09/05 00:59:33;;;;;;;6.03;3.60;;;;;;;19.68;75.36;101942.16;5046171;28;20048;-69
2022/09/05 01:02:24;;;;;;;8.10;3.42;;;;;;;19.72;74.64;101949.09;5035620;28;20040;-68
2022/09/05 01:05:17;;;;;;;7.45;3.85;;;;;;;19.77;74.58;101951.47;5007984;28;20029;-64
2022/09/05 01:08:20;;;;;;;3.88;3.40;;;;;;;19.82;73.90;101952.97;5024895;28;20439;-67
2022/09/05 01:10:51;;;;;;;4.85;3.45;;;;;;;19.86;73.62;101955.47;5026055;28;20030;-68
2022/09/05 01:13:30;;;;;;;4.50;3.50;;;;;;;19.86;73.52;101953.66;5026185;28;20500;-68
2022/09/05 01:16:08;;;;;;;6.00;3.13;;;;;;;19.86;73.49;101950.13;5008265;28;20328;-68
2022/09/05 01:18:37;;;;;;;5.03;3.75;;;;;;;19.88;73.40;101951.75;5021400;28;20036;-68
2022/09/05 01:21:35;;;;;;;5.95;3.90;;;;;;;19.88;73.45;101953.56;5044373;28;20170;-68
2022/09/05 01:24:41;;;;;;;5.23;4.47;;;;;;;19.97;72.78;101957.53;5027492;28;20060;-68
2022/09/05 01:27:49;;;;;;;4.95;4.03;;;;;;;20.02;72.16;101955.50;5027833;28;20100;-69
2022/09/05 01:30:22;;;;;;;6.90;3.78;;;;;;;19.97;72.52;101952.19;5045650;28;20078;-68
2022/09/05 01:33:17;;;;;;;4.10;3.67;;;;;;;19.93;72.18;101946.16;5027824;28;20035;-69
2022/09/05 01:36:20;;;;;;;4.68;3.97;;;;;;;19.92;72.58;101947.09;5034812;28;20033;-68
2022/09/05 01:39:09;;;;;;;5.60;4.60;;;;;;;19.82;72.49;101949.41;5044500;28;20549;-68
2022/09/05 01:41:42;;;;;;;5.15;4.40;;;;;;;19.83;72.75;101952.00;5044658;28;20021;-68
2022/09/05 01:44:25;;;;;;;6.30;3.83;;;;;;;19.86;72.81;101942.94;5027970;28;20029;-70
2022/09/05 01:47:02;;;;;;;5.93;4.13;;;;;;;19.89;72.68;101945.44;5044725;28;20395;-68
2022/09/05 01:49:49;;;;;;;7.53;4.40;;;;;;;19.89;72.49;101940.09;5031318;28;20052;-69
2022/09/05 01:52:25;;;;;;;5.00;4.50;;;;;;;19.83;73.21;101945.78;5007168;28;20021;-68
2022/09/05 01:55:18;;;;;;;5.13;3.55;;;;;;;19.79;72.99;101947.78;5007323;28;20025;-69
2022/09/05 01:57:51;;;;;;;6.15;3.90;;;;;;;19.77;72.72;101947.00;5007581;28;20030;-68
2022/09/05 02:00:21;;;;;;;6.10;4.30;;;;;;;19.85;72.41;101949.25;5025582;28;20127;-68
2022/09/05 02:03:11;;;;;;;5.30;4.35;;;;;;;19.89;72.37;101940.09;5025169;28;20175;-68
2022/09/05 02:06:01;;;;;;;8.30;4.38;;;;;;;19.81;72.49;101943.19;5022865;28;20041;-69
2022/09/05 02:08:38;;;;;;;5.95;3.92;;;;;;;19.79;72.77;101933.53;5023758;28;20060;-69
2022/09/05 02:11:08;;;;;;;10.15;4.90;;;;;;;19.75;72.62;101942.69;5042508;28;20075;-69
2022/09/05 02:13:33;;;;;;;5.05;4.20;;;;;;;19.68;72.83;101942.16;5026422;28;20388;-68
2022/09/05 02:16:01;;;;;;;6.43;5.10;;;;;;;19.61;73.17;101938.09;5044556;28;20082;-68
2022/09/05 02:18:53;;;;;;;5.80;4.13;;;;;;;19.55;73.22;101941.97;5045020;28;20037;-70
2022/09/05 02:21:38;;;;;;;9.10;5.10;;;;;;;19.50;73.10;101944.06;5044348;28;20478;-66
2022/09/05 02:24:11;;;;;;;6.90;5.15;;;;;;;19.44;73.49;101945.22;5040561;28;20023;-69
2022/09/05 02:26:42;;;;;;;7.68;5.13;;;;;;;19.38;73.65;101946.44;5024789;28;20512;-68
2022/09/05 02:29:34;;;;;;;9.05;4.70;;;;;;;19.36;73.99;101937.66;5023553;28;20080;-69
2022/09/05 02:32:09;;;;;;;9.10;5.30;;;;;;;19.34;73.98;101934.19;5024028;28;20056;-68
2022/09/05 02:34:40;;;;;;;9.65;5.72;;;;;;;19.39;73.46;101940.13;5024180;28;20033;-67
2022/09/05 02:37:17;;;;;;;6.65;5.20;;;;;;;19.39;73.84;101939.28;5020789;28;20805;-69
2022/09/05 02:39:56;;;;;;;11.50;5.43;;;;;;;19.43;73.16;101944.38;5023519;28;20037;-68
2022/09/05 02:42:26;;;;;;;6.90;5.60;;;;;;;19.44;73.52;101943.44;5023534;28;20036;-68
2022/09/05 02:45:19;;;;;;;8.63;5.53;;;;;;;19.41;73.73;101950.72;5006196;28;20033;-69
2022/09/05 02:48:28;;;;;;;6.90;4.82;;;;;;;19.39;74.05;101937.44;5012692;28;20470;-69
2022/09/05 02:50:59;;;;;;;10.48;5.60;;;;;;;19.42;73.45;101937.28;5029198;28;20537;-68
2022/09/05 02:53:25;;;;;;;10.45;5.60;;;;;;;19.48;72.74;101941.47;5027156;28;20468;-69
2022/09/05 02:56:10;;;;;;;6.95;5.57;;;;;;;19.45;73.15;101939.78;5037736;28;20021;-68
2022/09/05 02:58:35;;;;;;;7.95;5.50;;;;;;;19.49;72.75;101942.31;5029248;28;20025;-67
2022/09/05 03:01:22;;;;;;;8.53;6.20;;;;;;;19.41;72.90;101946.25;5031652;28;20111;-68
2022/09/05 03:03:53;;;;;;;8.07;5.65;;;;;;;19.40;73.05;101949.88;5033800;28;20260;-68
2022/09/05 03:06:34;;;;;;;11.65;6.07;;;;;;;19.38;73.29;101949.09;5013526;28;20041;-68
2022/09/05 03:09:14;;;;;;;10.93;5.93;;;;;;;19.35;73.37;101949.25;5006724;28;20028;-69
2022/09/05 03:11:53;;;;;;;7.35;5.43;;;;;;;19.36;73.37;101945.66;5023626;28;20047;-68
2022/09/05 03:14:37;;;;;;;;;;;;;;;19.51;73.18;101943.09;5018660;28;20026;-69
2022/09/05 03:17:08;;;;;;;8.77;6.22;;;;;;;19.57;72.65;101940.94;5023914;28;20314;-68
2022/09/05 03:19:48;;;;;;;10.93;6.70;;;;;;;19.49;72.71;101942.31;5022828;28;20029;-67
2022/09/05 03:22:27;;;;;;;10.05;6.72;;;;;;;19.55;72.91;101945.53;5029113;28;20029;-68
2022/09/05 03:24:58;;;;;;;10.98;7.53;;;;;;;19.56;72.96;101946.38;5036272;28;20039;-69
2022/09/05 03:28:02;;;;;;;12.48;6.60;;;;;;;19.61;72.64;101946.13;5024928;28;20103;-68
2022/09/05 03:30:46;;;;;;;9.35;7.50;;;;;;;19.64;72.50;101946.81;5023742;28;20108;-69
2022/09/05 03:33:24;;;;;;;8.80;7.15;;;;;;;19.61;72.43;101936.31;5015475;28;20036;-68
2022/09/05 03:36:28;;;;;;;16.98;7.00;;;;;;;19.66;72.42;101947.59;5030835;28;20036;-70
2022/09/05 03:39:10;;;;;;;10.45;7.00;;;;;;;19.72;72.14;101942.88;4984342;28;20034;-66
2022/09/05 03:41:56;;;;;;;8.10;7.20;;;;;;;19.75;72.04;101940.03;5023436;28;20479;-68
2022/09/05 03:44:48;;;;;;;9.23;5.95;;;;;;;19.67;72.48;101935.97;5016337;28;20045;-69
2022/09/05 03:47:35;;;;;;;12.13;7.78;;;;;;;19.78;72.06;101939.84;5032205;28;20064;-69
2022/09/05 03:50:27;;;;;;;10.45;7.10;;;;;;;19.75;71.59;101937.34;5038091;28;20079;-68
2022/09/05 03:52:56;;;;;;;10.25;7.55;;;;;;;19.78;71.95;101937.19;5027876;28;20033;-67
2022/09/05 03:55:35;;;;;;;11.10;8.00;;;;;;;19.76;72.09;101928.38;5027948;28;20235;-70
2022/09/05 03:58:22;;;;;;;10.20;7.20;;;;;;;19.72;71.84;101933.03;5031215;28;20383;-68
2022/09/05 04:01:07;;;;;;;9.40;7.85;;;;;;;19.69;72.42;101934.06;5011328;28;20030;-69
2022/09/05 04:03:40;;;;;;;13.80;7.78;;;;;;;19.67;72.24;101941.31;5041256;28;20409;-67
2022/09/05 04:06:26;;;;;;;11.90;7.43;;;;;;;19.59;72.56;101943.53;5030555;28;20025;-66
2022/09/05 04:09:13;;;;;;;16.33;7.82;;;;;;;19.51;73.30;101945.78;5026056;28;20116;-64
2022/09/05 04:12:00;;;;;;;12.10;7.90;;;;;;;19.40;73.75;101939.19;5007976;28;20033;-64
2022/09/05 04:14:36;;;;;;;14.25;7.80;;;;;;;19.38;74.05;101940.25;5034300;28;20029;-64
2022/09/05 04:17:07;;;;;;;9.25;7.20;;;;;;;19.35;74.18;101935.91;5058233;28;20379;-67
2022/09/05 04:19:40;;;;;;;10.18;7.80;;;;;;;19.37;73.64;101949.19;5055458;28;20165;-66
2022/09/05 04:22:17;;;;;;;11.32;7.95;;;;;;;19.36;74.01;101948.34;5028660;28;20043;-65
2022/09/05 04:24:47;;;;;;;10.30;8.45;;;;;;;19.40;74.17;101949.88;5045850;28;20033;-65
2022/09/05 04:27:58;;;;;;;11.52;8.85;;;;;;;19.36;74.35;101952.81;5046160;28;20108;-65
2022/09/05 04:30:38;;;;;;;10.52;8.10;;;;;;;19.40;74.27;101946.34;5020363;28;20056;-66
2022/09/05 04:33:24;;;;;;;12.48;8.63;;;;;;;19.42;74.00;101939.97;5028318;28;20067;-66
2022/09/05 04:36:02;;;;;;;12.73;8.07;;;;;;;19.45;74.00;101937.13;5007205;28;20083;-66
2022/09/05 04:38:39;;;;;;;14.65;8.80;;;;;;;19.42;74.15;101936.44;5025452;28;20038;-66
2022/09/05 04:41:17;;;;;;;9.82;8.00;;;;;;;19.45;73.97;101931.78;5041888;28;20021;-67
2022/09/05 04:43:58;;;;;;;14.63;9.43;;;;;;;19.48;74.33;101927.22;5044332;28;20484;-67
2022/09/05 04:46:30;;;;;;;12.23;8.65;;;;;;;19.52;74.25;101934.13;5045011;28;20033;-66
2022/09/05 04:49:07;;;;;;;14.82;8.35;;;;;;;19.49;73.79;101939.63;5027921;28;20499;-66
2022/09/05 04:51:58;;;;;;;11.18;8.07;;;;;;;19.52;74.09;101937.66;5044828;28;20403;-65
2022/09/05 04:55:09;;;;;;;10.52;8.68;;;;;;;19.47;73.92;101941.53;5044270;28;20609;-67
2022/09/05 04:57:41;;;;;;;11.45;8.07;;;;;;;19.46;73.61;101943.34;5003483;28;20117;-66
2022/09/05 05:00:13;;;;;;;12.52;9.27;;;;;;;19.54;73.58;101943.78;5002547;28;20030;-65
2022/09/05 05:02:45;;;;;;;10.90;9.13;;;;;;;19.44;73.76;101940.75;5028079;28;20098;-67
2022/09/05 05:05:22;;;;;;;15.40;8.95;;;;;;;19.50;73.60;101949.41;5060594;28;20054;-65
2022/09/05 05:07:56;;;;;;;18.90;9.90;;;;;;;19.46;74.33;101954.03;5047219;28;20051;-66
2022/09/05 05:10:36;;;;;;;13.68;9.05;;;;;;;19.52;74.24;101963.53;5065793;28;20467;-66
2022/09/05 05:13:04;;;;;;;12.18;9.45;;;;;;;19.51;73.95;101959.13;5047581;28;20487;-67
2022/09/05 05:15:32;;;;;;;13.57;8.97;;;;;;;19.49;73.86;101963.69;5044274;28;20059;-65
2022/09/05 05:18:05;;;;;;;15.40;8.82;;;;;;;19.55;73.80;101961.56;5026958;28;20284;-64
2022/09/05 05:20:40;;;;;;;12.82;9.13;;;;;;;19.66;73.78;101952.94;5009720;28;20017;-69
2022/09/05 05:23:13;;;;;;;9.63;8.43;;;;;;;19.79;73.11;101960.28;5045360;28;20415;-66
2022/09/05 05:25:50;;;;;;;12.15;8.20;;;;;;;19.87;72.42;101955.34;5045263;28;20521;-65
2022/09/05 05:28:46;;;;;;;12.73;7.90;;;;;;;19.85;72.66;101949.25;5039058;28;20252;-65
2022/09/05 05:31:14;;;;;;;14.43;8.45;;;;;;;19.87;72.54;101955.34;5027262;28;20056;-65
2022/09/05 05:33:46;;;;;;;9.45;7.68;;;;;;;19.92;72.73;101961.34;5044807;28;20059;-66
2022/09/05 05:36:23;;;;;;;10.57;8.63;;;;;;;19.94;72.63;101958.56;5045413;28;20044;-66
2022/09/05 05:38:54;;;;;;;9.15;7.53;;;;;;;20.11;71.90;101963.00;5028431;28;20148;-66
2022/09/05 05:41:37;;;;;;;10.50;8.25;;;;;;;20.15;71.72;101961.88;5027494;28;20225;-66
2022/09/05 05:44:18;;;;;;;9.43;8.00;;;;;;;20.27;71.70;101970.16;5019161;28;20021;-65
2022/09/05 05:47:03;;;;;;;13.02;8.98;;;;;;;20.40;71.23;101965.81;5006041;28;20470;-65
2022/09/05 05:49:50;;;;;;;12.10;9.65;;;;;;;20.42;70.96;101965.72;5023736;28;20375;-65
2022/09/05 05:52:53;;;;;;;13.85;8.82;;;;;;;20.46;71.47;101967.25;5007648;28;20369;-66
2022/09/05 05:55:31;;;;;;;14.48;8.82;;;;;;;20.51;70.85;101967.88;5045378;28;20519;-64
2022/09/05 05:58:13;;;;;;;15.30;8.90;;;;;;;20.58;70.77;101968.38;5044653;28;20497;-64
2022/09/05 06:00:53;;;;;;;12.07;9.30;;;;;;;20.66;71.17;101971.47;5027367;28;20033;-65
2022/09/05 06:03:55;;;;;;;15.68;9.82;;;;;;;20.77;70.35;101965.44;5044647;28;20062;-65
2022/09/05 06:06:30;;;;;;;15.07;8.95;;;;;;;20.93;69.82;101977.97;5025790;28;20029;-65
2022/09/05 06:09:08;;;;;;;16.40;10.07;;;;;;;21.04;69.08;101982.69;5042648;28;20060;-66
2022/09/05 06:11:58;;;;;;;13.82;9.57;;;;;;;21.11;69.27;101977.81;5043144;28;20099;-65
2022/09/05 06:14:37;;;;;;;11.95;8.98;;;;;;;21.26;68.89;101978.69;5011004;28;20526;-66
2022/09/05 06:17:18;;;;;;;15.13;9.43;;;;;;;21.30;68.60;101981.09;5006294;28;20053;-66
2022/09/05 06:20:17;;;;;;;14.57;10.05;;;;;;;21.33;68.90;101980.03;5022408;28;20855;-66
2022/09/05 06:22:48;;;;;;;14.52;9.60;;;;;;;21.54;68.13;101982.31;5021773;28;20040;-67
2022/09/05 06:25:39;;;;;;;13.75;8.80;;;;;;;21.75;67.58;101976.56;5006133;28;20408;-65
2022/09/05 06:28:21;;;;;;;31.05;11.70;;;;;;;21.82;67.45;101976.09;5006102;28;20055;-67
2022/09/05 06:31:22;;;;;;;19.10;9.98;;;;;;;21.85;67.70;101975.03;5043902;28;20052;-73
2022/09/05 06:33:56;;;;;;;13.75;9.38;;;;;;;21.96;67.22;101983.28;5033832;28;20305;-70
2022/09/05 06:36:35;;;;;;;21.13;9.55;;;;;;;22.22;65.75;101975.31;5044512;28;20577;-71
2022/09/05 06:39:26;;;;;;;12.88;8.52;;;;;;;22.40;65.23;101980.47;5042530;28;20044;-78
2022/09/05 06:42:10;;;;;;;17.27;9.18;;;;;;;22.35;66.16;101982.59;5044095;28;20493;-64
2022/09/05 06:44:58;;;;;;;14.98;9.00;;;;;;;22.56;64.61;101982.09;5030422;28;20140;-64
2022/09/05 06:47:24;;;;;;;16.13;8.88;;;;;;;22.62;64.64;101979.03;5023528;28;20044;-60
2022/09/05 06:50:18;;;;;;;11.75;8.60;;;;;;;22.66;64.81;101987.78;5022173;28;20033;-61
2022/09/05 06:53:11;;;;;;;13.32;8.45;;;;;;;22.63;64.59;101991.50;5021621;28;20029;-61
2022/09/05 06:55:40;;;;;;;13.20;7.05;;;;;;;22.80;63.48;101986.81;5022368;28;20110;-62
2022/09/05 06:58:43;;;;;;;12.65;6.82;;;;;;;23.00;61.92;101987.28;5022450;28;20035;-61
2022/09/05 07:01:08;;;;;;;15.05;6.97;;;;;;;23.13;61.21;101993.53;5023570;28;20034;-61
2022/09/05 07:03:49;;;;;;;15.80;7.50;;;;;;;23.26;60.30;101990.81;5022350;28;20028;-61
2022/09/05 07:06:30;;;;;;;11.02;7.72;;;;;;;23.39;60.11;101996.22;5022958;28;20447;-61
2022/09/05 07:09:09;;;;;;;15.10;7.78;;;;;;;23.55;59.68;101998.72;5036552;28;20063;-61
2022/09/05 07:12:12;;;;;;;15.73;6.90;;;;;;;23.72;58.96;101993.94;5025131;28;20090;-62
2022/09/05 07:14:50;;;;;;;11.77;5.75;;;;;;;24.10;57.96;102002.88;5043098;28;20028;-61
2022/09/05 07:17:19;;;;;;;10.35;6.75;;;;;;;24.17;57.90;101997.94;5025528;28;20117;-62
2022/09/05 07:19:47;;;;;;;15.73;7.50;;;;;;;24.26;57.58;102009.88;5042733;28;20017;-62
2022/09/05 07:22:32;;;;;;;11.90;7.85;;;;;;;24.28;57.91;102006.06;5040666;28;20108;-61
2022/09/05 07:25:10;;;;;;;10.55;6.28;;;;;;;24.50;57.63;102011.69;5022936;28;20502;-62
2022/09/05 07:27:43;;;;;;;11.30;5.90;;;;;;;24.68;57.13;102012.97;5004544;28;20256;-61
2022/09/05 07:30:09;;;;;;;9.15;6.43;;;;;;;24.76;56.60;102015.09;5023235;28;20029;-62
2022/09/05 07:32:41;;;;;;;22.98;6.85;;;;;;;24.78;55.91;102017.69;5005863;28;20067;-63
2022/09/05 07:35:30;;;;;;;11.25;6.10;;;;;;;24.86;56.67;102024.19;5005286;28;20079;-61
2022/09/05 07:38:14;;;;;;;9.18;5.32;;;;;;;25.21;55.23;102025.16;5018126;28;20059;-61
2022/09/05 07:40:51;;;;;;;9.38;5.00;;;;;;;25.28;54.08;102027.41;5024896;28;20514;-61
2022/09/05 07:43:29;;;;;;;8.68;5.32;;;;;;;25.35;53.35;102020.53;5042176;28;20032;-60
2022/09/05 07:46:10;;;;;;;8.63;5.10;;;;;;;25.54;53.82;102024.44;5042996;28;20027;-62
2022/09/05 07:48:45;;;;;;;10.57;5.15;;;;;;;25.68;52.84;102032.34;5042729;28;20028;-61
2022/09/05 07:51:25;;;;;;;8.55;4.68;;;;;;;25.81;52.53;102025.94;5042359;28;20563;-62
2022/09/05 07:54:01;;;;;;;6.78;4.13;;;;;;;25.93;51.37;102019.56;5024389;28;20365;-62
2022/09/05 07:56:47;;;;;;;6.03;4.20;;;;;;;25.93;51.41;102021.41;5040780;28;20031;-61
2022/09/05 07:59:13;;;;;;;6.13;4.13;;;;;;;26.02;51.13;102020.66;5024858;28;20136;-62
2022/09/05 08:01:42;;;;;;;11.02;4.70;;;;;;;25.93;51.93;102027.66;5021849;28;20491;-60
2022/09/05 08:04:09;;;;;;;8.68;4.07;;;;;;;25.91;52.13;102016.13;5042400;28;20025;-60
2022/09/05 08:06:34;;;;;;;7.40;3.92;;;;;;;25.83;52.75;102015.91;5041179;28;20119;-61
2022/09/05 08:09:04;;;;;;;6.82;4.35;;;;;;;25.57;52.78;102018.81;5024932;28;20100;-60
2022/09/05 08:11:31;;;;;;;7.90;4.82;;;;;;;25.58;53.09;102009.72;5042104;28;20053;-61
2022/09/05 08:13:58;;;;;;;11.30;4.60;;;;;;;25.57;52.83;102030.47;5021826;28;20041;-61
2022/09/05 08:16:24;;;;;;;8.80;4.93;;;;;;;25.59;53.30;102031.22;5021490;28;20060;-62
2022/09/05 08:18:55;;;;;;;6.28;4.95;;;;;;;25.61;53.53;102028.41;5022324;28;20436;-61
2022/09/05 08:21:24;;;;;;;7.82;4.80;;;;;;;25.65;53.74;102043.41;5020416;28;20228;-61
2022/09/05 08:24:10;;;;;;;9.32;5.32;;;;;;;25.55;53.47;102043.22;5022130;28;20025;-61
2022/09/05 08:26:41;;;;;;;8.57;4.45;;;;;;;25.61;52.25;102041.91;5022675;28;20033;-61
2022/09/05 08:29:29;;;;;;;7.68;4.25;;;;;;;25.75;52.63;102038.09;5025644;28;20034;-61
2022/09/05 08:32:07;;;;;;;9.23;3.72;;;;;;;26.01;51.51;102032.44;5024894;28;20060;-61
2022/09/05 08:34:32;;;;;;;6.95;3.80;;;;;;;25.99;51.51;102029.88;5024904;28;20053;-61
2022/09/05 08:36:59;;;;;;;5.60;3.33;;;;;;;26.04;51.88;102026.78;5026712;28;20063;-60
2022/09/05 08:39:25;;;;;;;9.48;3.22;;;;;;;26.17;52.10;102025.78;5019500;28;20289;-61
2022/09/05 08:41:54;;;;;;;8.48;3.97;;;;;;;26.29;50.99;102024.78;5005825;28;20038;-61
2022/09/05 08:44:30;;;;;;;6.25;3.28;;;;;;;26.47;50.90;102017.00;5005988;28;20603;-64
2022/09/05 08:47:27;;;;;;;3.45;2.70;;;;;;;26.91;50.08;102016.03;5005128;28;20034;-62
2022/09/05 08:50:18;;;;;;;6.15;2.60;;;;;;;26.98;48.88;102013.69;5005585;28;20032;-66
2022/09/05 08:52:58;;;;;;;7.95;3.08;;;;;;;27.03;48.78;102019.56;5011220;28;20339;-65
2022/09/05 08:55:37;;;;;;;6.78;3.22;;;;;;;27.04;48.73;102017.72;5024718;28;20078;-66
2022/09/05 08:58:11;;;;;;;5.68;2.67;;;;;;;27.05;48.64;102014.00;5040356;28;20030;-61
2022/09/05 09:00:54;;;;;;;10.05;3.10;;;;;;;27.04;48.69;102013.19;5025443;28;20030;-64
2022/09/05 09:03:29;;;;;;;4.50;2.25;;;;;;;27.08;49.35;102017.31;5041740;28;20120;-68
2022/09/05 09:05:54;;;;;;;6.10;2.88;;;;;;;27.02;48.71;102019.72;5024144;28;20486;-68
2022/09/05 09:08:46;;;;;;;4.57;2.23;;;;;;;27.27;48.27;102017.56;5012898;28;20125;-68
2022/09/05 09:11:36;;;;;;;5.53;2.33;;;;;;;27.33;46.83;102014.34;5005182;28;20276;-67
2022/09/05 09:14:28;;;;;;;4.45;2.00;;;;;;;27.52;47.17;102007.28;5012412;28;20238;-68
2022/09/05 09:17:16;;;;;;;5.85;2.40;;;;;;;27.73;46.32;102002.72;5017716;28;20381;-69
2022/09/05 09:19:44;;;;;;;6.27;2.33;;;;;;;27.78;45.76;102002.25;5034343;28;20662;-74
2022/09/05 09:22:24;;;;;;;9.00;2.50;;;;;;;27.91;46.86;102004.75;5043715;28;20359;-75
2022/09/05 09:25:00;;;;;;;5.75;2.28;;;;;;;27.99;46.19;101996.75;5045776;28;20033;-73
2022/09/05 09:27:44;;;;;;;4.95;2.08;;;;;;;28.25;45.45;101985.41;5042086;28;20495;-70
2022/09/05 09:30:11;;;;;;;5.28;1.90;;;;;;;28.08;46.09;101995.06;5030110;28;20079;-79
2022/09/05 09:32:44;;;;;;;5.68;2.20;;;;;;;28.21;45.04;101993.94;5022884;28;20526;-72
2022/09/05 09:35:22;;;;;;;8.73;2.22;;;;;;;28.37;43.90;101982.56;5024430;28;20029;-63
2022/09/05 09:38:12;;;;;;;3.40;1.90;;;;;;;28.74;42.46;101989.09;5022594;28;20506;-72
2022/09/05 09:40:42;;;;;;;4.80;2.10;;;;;;;28.83;42.20;101987.41;5025210;28;20029;-71
2022/09/05 09:43:21;;;;;;;8.38;2.30;;;;;;;28.88;42.41;101991.38;5019602;28;20427;-69
2022/09/05 09:46:16;;;;;;;3.08;1.65;;;;;;;28.94;41.81;101995.41;5005016;28;20026;-68
2022/09/05 09:49:01;;;;;;;4.70;1.85;;;;;;;28.90;41.44;101996.66;4986184;28;20476;-72
2022/09/05 09:51:45;;;;;;;3.83;2.13;;;;;;;28.74;41.19;101998.09;5004837;28;20296;-69
2022/09/05 09:54:10;;;;;;;6.50;2.40;;;;;;;28.83;41.12;101992.81;5004253;28;20041;-72
2022/09/05 09:56:58;;;;;;;7.72;1.98;;;;;;;28.87;41.83;101988.81;5011635;28;20025;-72
2022/09/05 09:59:47;;;;;;;3.30;2.05;;;;;;;28.81;41.30;101986.69;5025465;28;20049;-67
2022/09/05 10:02:39;;;;;;;2.65;1.33;;;;;;;28.93;41.98;101990.97;5034028;28;20041;-69
2022/09/05 10:05:38;;;;;;;6.75;1.83;;;;;;;28.96;41.29;101993.38;5031254;28;20041;-69
2022/09/05 10:08:24;;;;;;;10.43;2.13;;;;;;;29.12;42.11;101979.22;5032226;28;20048;-67
2022/09/05 10:11:02;;;;;;;13.73;2.13;;;;;;;29.42;40.93;101978.22;5030523;28;20591;-67
2022/09/05 10:13:52;;;;;;;4.95;1.75;;;;;;;29.52;39.57;101979.03;5019989;28;20033;-67
2022/09/05 10:16:29;;;;;;;4.10;1.65;;;;;;;29.41;39.56;101969.25;5023371;28;20069;-67
2022/09/05 10:19:13;;;;;;;9.63;1.85;;;;;;;29.44;40.30;101971.66;5029564;28;20027;-66
2022/09/05 10:21:45;;;;;;;7.07;2.10;;;;;;;29.39;39.05;101966.69;5030971;28;20427;-66
2022/09/05 10:24:22;;;;;;;2.88;1.52;;;;;;;29.49;38.63;101961.19;5019645;28;20669;-67
2022/09/05 10:27:02;;;;;;;5.10;1.70;;;;;;;29.63;38.40;101961.72;5030771;28;20028;-67
2022/09/05 10:30:06;;;;;;;3.90;1.65;;;;;;;29.54;38.78;101957.16;5030018;28;20021;-68
2022/09/05 10:32:40;;;;;;;7.30;1.90;;;;;;;29.31;39.22;101946.72;4991774;28;20175;-67
2022/09/05 10:35:16;;;;;;;8.02;1.90;;;;;;;29.31;40.03;101949.44;5032613;28;20028;-66
2022/09/05 10:38:03;;;;;;;5.13;1.63;;;;;;;29.70;39.02;101951.97;5012707;28;20030;-66
2022/09/05 10:40:33;;;;;;;3.42;1.55;;;;;;;29.65;38.91;101946.16;5024539;28;20021;-65
2022/09/05 10:43:12;;;;;;;10.73;1.80;;;;;;;29.55;39.87;101946.19;5026896;28;20032;-65
2022/09/05 10:45:44;;;;;;;3.38;1.73;;;;;;;29.57;39.56;101955.03;5022794;28;20036;-66
2022/09/05 10:48:22;;;;;;;4.70;2.00;;;;;;;29.78;38.30;101948.47;5022800;28;20029;-64
2022/09/05 10:50:55;;;;;;;2.40;1.73;;;;;;;29.79;37.59;101947.47;5020520;28;20029;-68
2022/09/05 10:53:31;;;;;;;5.20;1.63;;;;;;;29.91;37.82;101937.22;5023370;28;20521;-65
2022/09/05 10:56:05;;;;;;;2.10;1.50;;;;;;;29.94;37.89;101939.66;5022775;28;20069;-66
2022/09/05 10:59:03;;;;;;;4.78;1.40;;;;;;;30.06;38.09;101937.56;5039007;28;20108;-65
2022/09/05 11:01:40;;;;;;;4.05;1.58;;;;;;;30.50;37.69;101942.22;5023365;28;20490;-64
2022/09/05 11:04:31;;;;;;;7.80;1.67;;;;;;;30.58;37.65;101938.69;5022772;28;20048;-65
2022/09/05 11:07:07;;;;;;;6.57;1.90;;;;;;;31.00;36.30;101942.53;5018892;28;20061;-65
2022/09/05 11:09:59;;;;;;;2.10;1.50;;;;;;;31.37;35.92;101932.38;5002825;28;20030;-66
2022/09/05 11:12:27;;;;;;;8.70;1.92;;;;;;;31.92;34.72;101939.31;4964355;28;1064163;-67
2022/09/05 11:14:54;;;;;;;;;;;;;;;32.02;34.22;101935.44;5005218;28;20042;-68
2022/09/05 11:17:25;;;;;;;3.03;1.50;;;;;;;32.14;34.11;101948.72;5003673;28;20428;-66
2022/09/05 11:20:05;;;;;;;3.92;1.40;;;;;;;32.02;33.47;101938.16;5004129;28;20022;-65
2022/09/05 11:22:38;;;;;;;5.30;1.58;;;;;;;32.15;34.14;101940.38;5003680;28;20484;-65
2022/09/05 11:25:11;;;;;;;4.10;1.83;;;;;;;32.24;35.40;101938.50;5002413;28;20114;-65
2022/09/05 11:27:43;;;;;;;6.65;1.73;;;;;;;32.60;35.01;101944.66;5002155;28;20280;-67
2022/09/05 11:30:16;;;;;;;5.28;1.75;;;;;;;32.95;33.59;101939.81;5003030;28;20022;-66
2022/09/05 11:33:14;;;;;;;3.35;1.60;;;;;;;32.93;32.52;101936.41;5030371;28;20055;-66
2022/09/05 11:35:41;;;;;;;5.78;1.67;;;;;;;33.36;31.44;101929.78;5046469;28;20035;-67
2022/09/05 11:38:09;;;;;;;6.32;1.70;;;;;;;33.39;30.89;101926.69;5031731;28;20017;-68
2022/09/05 11:41:12;;;;;;;5.55;1.92;;;;;;;33.53;30.42;101925.09;5028097;28;20112;-67
2022/09/05 11:43:49;;;;;;;2.13;1.30;;;;;;;33.48;31.19;101931.09;5029609;28;20503;-67
2022/09/05 11:46:37;;;;;;;11.80;1.80;;;;;;;33.52;31.18;101923.38;5032206;28;20360;-67
2022/09/05 11:49:33;;;;;;;5.18;1.55;;;;;;;33.44;30.87;101927.03;5021282;28;20034;-66
2022/09/05 11:52:38;;;;;;;9.25;1.80;;;;;;;33.08;31.95;101922.06;5028920;28;20442;-67
2022/09/05 11:55:22;;;;;;;5.57;1.70;;;;;;;33.23;30.74;101925.72;5030606;28;20112;-67
2022/09/05 11:58:12;;;;;;;6.85;1.67;;;;;;;33.28;31.37;101915.13;5031083;28;20017;-67
2022/09/05 12:00:56;;;;;;;9.20;1.70;;;;;;;33.38;31.02;101920.38;5029574;28;20064;-67
2022/09/05 12:03:41;;;;;;;3.55;1.60;;;;;;;33.26;30.69;101913.63;5024557;28;20034;-67
2022/09/05 12:06:22;;;;;;;2.70;1.40;;;;;;;33.33;30.74;101913.75;5035895;28;20033;-68
2022/09/05 12:09:09;;;;;;;3.92;1.65;;;;;;;33.60;30.24;101912.44;5023125;28;20300;-67
2022/09/05 12:12:05;;;;;;;2.15;1.30;;;;;;;34.12;29.33;101900.94;5036380;28;20029;-67
2022/09/05 12:15:04;;;;;;;4.65;1.45;;;;;;;34.43;28.84;101908.19;5025151;28;20038;-66
2022/09/05 12:17:36;;;;;;;3.63;1.45;;;;;;;34.76;27.68;101910.63;5035550;28;20017;-66
2022/09/05 12:20:12;;;;;;;2.58;1.30;;;;;;;34.74;27.75;101903.66;5023426;28;20029;-67
2022/09/05 12:22:46;;;;;;;3.67;1.52;;;;;;;35.29;26.63;101898.72;5025775;28;20092;-67